sensor_id;sensor_type;location;lat;lon;timestamp;temperature;humidity
79055;DHT22;68452;47.186;-1.528;2023-04-01T00:02:01;13.50;64.60
79055;DHT22;68452;47.186;-1.528;2023-04-01T00:04:27;13.40;64.60
79055;DHT22;68452;47.186;-1.528;2023-04-01T00:06:53;13.50;64.70
79055;DHT22;68452;47.186;-1.528;2023-04-01T00:09:19;13.40;64.70
79055;DHT22;68452;47.186;-1.528;2023-04-01T00:11:45;13.40;64.80
79055;DHT22;68452;47.186;-1.528;2023-04-01T00:14:11;13.40;64.40
79055;DHT22;68452;47.186;-1.528;2023-04-01T00:16:37;13.40;64.50
79055;DHT22;68452;47.186;-1.528;2023-04-01T00:19:03;13.30;64.90
79055;DHT22;68452;47.186;-1.528;2023-04-01T00:21:29;13.30;64.90
79055;DHT22;68452;47.186;-1.528;2023-04-01T00:23:55;13.30;64.70
79055;DHT22;68452;47.186;-1.528;2023-04-01T00:26:21;13.30;64.60
79055;DHT22;68452;47.186;-1.528;2023-04-01T00:28:48;13.30;64.60
79055;DHT22;68452;47.186;-1.528;2023-04-01T00:31:14;13.30;64.30
79055;DHT22;68452;47.186;-1.528;2023-04-01T00:33:40;13.30;64.30
79055;DHT22;68452;47.186;-1.528;2023-04-01T00:36:11;13.30;64.60
79055;DHT22;68452;47.186;-1.528;2023-04-01T00:38:38;13.30;64.60
79055;DHT22;68452;47.186;-1.528;2023-04-01T00:41:05;13.30;64.80
79055;DHT22;68452;47.186;-1.528;2023-04-01T00:43:31;13.30;65.40
79055;DHT22;68452;47.186;-1.528;2023-04-01T00:45:58;13.30;65.30
79055;DHT22;68452;47.186;-1.528;2023-04-01T00:48:33;13.30;65.50
79055;DHT22;68452;47.186;-1.528;2023-04-01T00:51:06;13.30;65.50
79055;DHT22;68452;47.186;-1.528;2023-04-01T00:53:35;13.40;65.30
79055;DHT22;68452;47.186;-1.528;2023-04-01T00:56:10;13.30;65.20
79055;DHT22;68452;47.186;-1.528;2023-04-01T00:58:40;13.20;65.30
79055;DHT22;68452;47.186;-1.528;2023-04-01T01:01:08;13.20;65.40
79055;DHT22;68452;47.186;-1.528;2023-04-01T01:03:34;13.20;65.20
79055;DHT22;68452;47.186;-1.528;2023-04-01T01:09:23;13.20;65.30
79055;DHT22;68452;47.186;-1.528;2023-04-01T01:12:18;13.20;65.10
79055;DHT22;68452;47.186;-1.528;2023-04-01T01:15:19;13.20;64.70
79055;DHT22;68452;47.186;-1.528;2023-04-01T01:18:02;13.30;64.50
79055;DHT22;68452;47.186;-1.528;2023-04-01T01:23:40;13.20;64.60
79055;DHT22;68452;47.186;-1.528;2023-04-01T01:26:34;13.20;65.40
79055;DHT22;68452;47.186;-1.528;2023-04-01T01:35:46;13.10;67.90
79055;DHT22;68452;47.186;-1.528;2023-04-01T01:37:56;13.00;67.90
79055;DHT22;68452;47.186;-1.528;2023-04-01T01:40:26;13.00;67.90
79055;DHT22;68452;47.186;-1.528;2023-04-01T01:42:56;12.90;67.90
79055;DHT22;68452;47.186;-1.528;2023-04-01T01:45:26;13.00;67.80
79055;DHT22;68452;47.186;-1.528;2023-04-01T01:47:52;13.00;67.50
79055;DHT22;68452;47.186;-1.528;2023-04-01T01:50:19;13.00;67.40
79055;DHT22;68452;47.186;-1.528;2023-04-01T01:52:46;13.00;67.50
79055;DHT22;68452;47.186;-1.528;2023-04-01T01:57:50;13.10;66.80
79055;DHT22;68452;47.186;-1.528;2023-04-01T02:00:17;13.00;67.00
79055;DHT22;68452;47.186;-1.528;2023-04-01T02:02:46;13.00;66.80
79055;DHT22;68452;47.186;-1.528;2023-04-01T02:05:32;13.00;66.70
79055;DHT22;68452;47.186;-1.528;2023-04-01T02:08:07;13.10;66.90
79055;DHT22;68452;47.186;-1.528;2023-04-01T02:10:39;13.10;67.00
79055;DHT22;68452;47.186;-1.528;2023-04-01T02:13:13;13.10;67.20
79055;DHT22;68452;47.186;-1.528;2023-04-01T02:15:45;13.10;67.40
79055;DHT22;68452;47.186;-1.528;2023-04-01T02:18:13;13.10;67.40
79055;DHT22;68452;47.186;-1.528;2023-04-01T02:20:40;13.10;67.30
79055;DHT22;68452;47.186;-1.528;2023-04-01T02:23:07;13.00;67.30
79055;DHT22;68452;47.186;-1.528;2023-04-01T02:25:36;12.90;67.20
79055;DHT22;68452;47.186;-1.528;2023-04-01T02:28:05;12.90;67.70
79055;DHT22;68452;47.186;-1.528;2023-04-01T02:30:34;13.00;67.40
79055;DHT22;68452;47.186;-1.528;2023-04-01T02:33:01;13.10;66.90
79055;DHT22;68452;47.186;-1.528;2023-04-01T02:35:28;13.00;67.20
79055;DHT22;68452;47.186;-1.528;2023-04-01T02:37:55;13.00;67.40
79055;DHT22;68452;47.186;-1.528;2023-04-01T02:40:21;13.00;67.30
79055;DHT22;68452;47.186;-1.528;2023-04-01T02:42:47;13.00;66.90
79055;DHT22;68452;47.186;-1.528;2023-04-01T02:45:13;13.00;67.00
79055;DHT22;68452;47.186;-1.528;2023-04-01T02:47:40;13.00;66.50
79055;DHT22;68452;47.186;-1.528;2023-04-01T02:50:07;13.10;66.70
79055;DHT22;68452;47.186;-1.528;2023-04-01T02:52:33;13.10;66.20
79055;DHT22;68452;47.186;-1.528;2023-04-01T02:54:59;13.10;66.20
79055;DHT22;68452;47.186;-1.528;2023-04-01T02:57:25;13.10;65.80
79055;DHT22;68452;47.186;-1.528;2023-04-01T02:59:51;13.10;65.80
79055;DHT22;68452;47.186;-1.528;2023-04-01T03:02:17;13.10;65.90
79055;DHT22;68452;47.186;-1.528;2023-04-01T03:04:43;13.10;66.00
79055;DHT22;68452;47.186;-1.528;2023-04-01T03:07:10;13.10;66.90
79055;DHT22;68452;47.186;-1.528;2023-04-01T03:09:37;13.10;67.80
79055;DHT22;68452;47.186;-1.528;2023-04-01T03:12:03;13.10;68.80
79055;DHT22;68452;47.186;-1.528;2023-04-01T03:14:29;13.00;70.00
79055;DHT22;68452;47.186;-1.528;2023-04-01T03:16:55;12.90;71.10
79055;DHT22;68452;47.186;-1.528;2023-04-01T03:19:20;12.90;71.50
79055;DHT22;68452;47.186;-1.528;2023-04-01T03:21:46;12.90;71.00
79055;DHT22;68452;47.186;-1.528;2023-04-01T03:24:12;12.70;71.20
79055;DHT22;68452;47.186;-1.528;2023-04-01T03:26:38;12.70;71.70
79055;DHT22;68452;47.186;-1.528;2023-04-01T03:29:04;12.60;71.60
79055;DHT22;68452;47.186;-1.528;2023-04-01T03:31:30;12.60;71.70
79055;DHT22;68452;47.186;-1.528;2023-04-01T03:33:56;12.60;72.60
79055;DHT22;68452;47.186;-1.528;2023-04-01T03:36:21;12.60;72.60
79055;DHT22;68452;47.186;-1.528;2023-04-01T03:38:47;12.60;72.70
79055;DHT22;68452;47.186;-1.528;2023-04-01T03:41:15;12.50;72.40
79055;DHT22;68452;47.186;-1.528;2023-04-01T03:43:41;12.50;72.60
79055;DHT22;68452;47.186;-1.528;2023-04-01T03:46:07;12.50;72.40
79055;DHT22;68452;47.186;-1.528;2023-04-01T03:48:33;12.50;72.10
79055;DHT22;68452;47.186;-1.528;2023-04-01T03:51:00;12.50;72.50
79055;DHT22;68452;47.186;-1.528;2023-04-01T03:53:25;12.50;72.10
79055;DHT22;68452;47.186;-1.528;2023-04-01T03:55:53;12.50;71.90
79055;DHT22;68452;47.186;-1.528;2023-04-01T03:58:19;12.50;71.80
79055;DHT22;68452;47.186;-1.528;2023-04-01T04:00:45;12.50;71.90
79055;DHT22;68452;47.186;-1.528;2023-04-01T04:03:11;12.50;71.60
79055;DHT22;68452;47.186;-1.528;2023-04-01T04:05:37;12.50;71.30
79055;DHT22;68452;47.186;-1.528;2023-04-01T04:08:03;12.50;71.30
79055;DHT22;68452;47.186;-1.528;2023-04-01T04:10:29;12.50;71.10
79055;DHT22;68452;47.186;-1.528;2023-04-01T04:12:55;12.40;71.00
79055;DHT22;68452;47.186;-1.528;2023-04-01T04:15:21;12.40;71.20
79055;DHT22;68452;47.186;-1.528;2023-04-01T04:17:47;12.40;71.30
79055;DHT22;68452;47.186;-1.528;2023-04-01T04:20:14;12.40;71.40
79055;DHT22;68452;47.186;-1.528;2023-04-01T04:22:40;12.40;71.20
79055;DHT22;68452;47.186;-1.528;2023-04-01T04:25:06;12.30;71.40
79055;DHT22;68452;47.186;-1.528;2023-04-01T04:27:32;12.40;71.50
79055;DHT22;68452;47.186;-1.528;2023-04-01T04:29:58;12.40;71.40
79055;DHT22;68452;47.186;-1.528;2023-04-01T04:32:24;12.40;71.20
79055;DHT22;68452;47.186;-1.528;2023-04-01T04:34:50;12.30;71.50
79055;DHT22;68452;47.186;-1.528;2023-04-01T04:37:16;12.40;71.20
79055;DHT22;68452;47.186;-1.528;2023-04-01T04:39:42;12.40;71.10
79055;DHT22;68452;47.186;-1.528;2023-04-01T04:42:07;12.40;71.20
79055;DHT22;68452;47.186;-1.528;2023-04-01T04:44:33;12.30;71.00
79055;DHT22;68452;47.186;-1.528;2023-04-01T04:46:59;12.40;70.80
79055;DHT22;68452;47.186;-1.528;2023-04-01T04:49:25;12.40;70.50
79055;DHT22;68452;47.186;-1.528;2023-04-01T04:51:50;12.30;70.70
79055;DHT22;68452;47.186;-1.528;2023-04-01T04:54:17;12.30;70.60
79055;DHT22;68452;47.186;-1.528;2023-04-01T04:56:43;12.30;70.40
79055;DHT22;68452;47.186;-1.528;2023-04-01T04:59:09;12.30;70.30
79055;DHT22;68452;47.186;-1.528;2023-04-01T05:01:35;12.30;70.40
79055;DHT22;68452;47.186;-1.528;2023-04-01T05:04:01;12.30;70.70
79055;DHT22;68452;47.186;-1.528;2023-04-01T05:06:27;12.30;70.90
79055;DHT22;68452;47.186;-1.528;2023-04-01T05:08:55;12.30;70.80
79055;DHT22;68452;47.186;-1.528;2023-04-01T05:11:21;12.30;70.70
79055;DHT22;68452;47.186;-1.528;2023-04-01T05:13:47;12.40;70.60
79055;DHT22;68452;47.186;-1.528;2023-04-01T05:16:16;12.40;70.50
79055;DHT22;68452;47.186;-1.528;2023-04-01T05:18:43;12.30;70.50
79055;DHT22;68452;47.186;-1.528;2023-04-01T05:21:10;12.40;70.60
79055;DHT22;68452;47.186;-1.528;2023-04-01T05:23:37;12.30;70.50
79055;DHT22;68452;47.186;-1.528;2023-04-01T05:26:08;12.30;70.50
79055;DHT22;68452;47.186;-1.528;2023-04-01T05:28:34;12.30;70.30
79055;DHT22;68452;47.186;-1.528;2023-04-01T05:31:01;12.30;70.50
79055;DHT22;68452;47.186;-1.528;2023-04-01T05:33:27;12.30;70.40
79055;DHT22;68452;47.186;-1.528;2023-04-01T05:35:54;12.20;70.40
79055;DHT22;68452;47.186;-1.528;2023-04-01T05:38:20;12.30;70.50
79055;DHT22;68452;47.186;-1.528;2023-04-01T05:40:46;12.30;70.10
79055;DHT22;68452;47.186;-1.528;2023-04-01T05:43:12;12.20;70.30
79055;DHT22;68452;47.186;-1.528;2023-04-01T05:45:37;12.20;70.20
79055;DHT22;68452;47.186;-1.528;2023-04-01T05:48:04;12.20;70.40
79055;DHT22;68452;47.186;-1.528;2023-04-01T05:50:30;12.30;70.30
79055;DHT22;68452;47.186;-1.528;2023-04-01T05:52:56;12.30;70.00
79055;DHT22;68452;47.186;-1.528;2023-04-01T05:55:21;12.20;70.00
79055;DHT22;68452;47.186;-1.528;2023-04-01T05:57:48;12.20;70.00
79055;DHT22;68452;47.186;-1.528;2023-04-01T06:00:16;12.20;70.00
79055;DHT22;68452;47.186;-1.528;2023-04-01T06:02:42;12.30;70.00
79055;DHT22;68452;47.186;-1.528;2023-04-01T06:05:20;12.40;69.60
79055;DHT22;68452;47.186;-1.528;2023-04-01T06:07:47;12.30;70.00
79055;DHT22;68452;47.186;-1.528;2023-04-01T06:10:18;12.30;69.80
79055;DHT22;68452;47.186;-1.528;2023-04-01T06:13:04;12.20;69.90
79055;DHT22;68452;47.186;-1.528;2023-04-01T06:15:43;12.20;70.10
79055;DHT22;68452;47.186;-1.528;2023-04-01T06:26:44;12.30;70.00
79055;DHT22;68452;47.186;-1.528;2023-04-01T06:37:41;12.30;70.30
79055;DHT22;68452;47.186;-1.528;2023-04-01T06:42:56;12.30;70.60
79055;DHT22;68452;47.186;-1.528;2023-04-01T06:45:46;12.40;70.90
79055;DHT22;68452;47.186;-1.528;2023-04-01T06:54:10;12.40;71.00
79055;DHT22;68452;47.186;-1.528;2023-04-01T06:56:41;12.40;71.20
79055;DHT22;68452;47.186;-1.528;2023-04-01T06:59:18;12.50;71.20
79055;DHT22;68452;47.186;-1.528;2023-04-01T07:01:49;12.60;70.90
79055;DHT22;68452;47.186;-1.528;2023-04-01T07:04:35;12.60;70.70
79055;DHT22;68452;47.186;-1.528;2023-04-01T07:09:43;12.70;70.50
79055;DHT22;68452;47.186;-1.528;2023-04-01T07:12:33;12.70;70.40
79055;DHT22;68452;47.186;-1.528;2023-04-01T07:17:43;12.60;70.40
79055;DHT22;68452;47.186;-1.528;2023-04-01T07:20:20;12.80;70.20
79055;DHT22;68452;47.186;-1.528;2023-04-01T07:22:49;12.80;69.50
79055;DHT22;68452;47.186;-1.528;2023-04-01T07:25:25;12.80;69.20
79055;DHT22;68452;47.186;-1.528;2023-04-01T07:28:05;12.80;69.10
79055;DHT22;68452;47.186;-1.528;2023-04-01T07:44:20;13.20;68.60
79055;DHT22;68452;47.186;-1.528;2023-04-01T07:55:00;13.20;68.50
79055;DHT22;68452;47.186;-1.528;2023-04-01T07:57:33;13.30;69.40
79055;DHT22;68452;47.186;-1.528;2023-04-01T08:00:20;13.40;67.80
79055;DHT22;68452;47.186;-1.528;2023-04-01T08:05:58;13.40;67.80
79055;DHT22;68452;47.186;-1.528;2023-04-01T08:08:52;13.30;68.00
79055;DHT22;68452;47.186;-1.528;2023-04-01T08:11:29;13.40;68.50
79055;DHT22;68452;47.186;-1.528;2023-04-01T08:14:24;13.50;68.30
79055;DHT22;68452;47.186;-1.528;2023-04-01T08:17:02;13.40;67.70
79055;DHT22;68452;47.186;-1.528;2023-04-01T08:19:46;13.50;68.60
79055;DHT22;68452;47.186;-1.528;2023-04-01T08:22:30;13.60;68.10
79055;DHT22;68452;47.186;-1.528;2023-04-01T08:25:02;13.80;68.30
79055;DHT22;68452;47.186;-1.528;2023-04-01T08:27:41;13.80;67.90
79055;DHT22;68452;47.186;-1.528;2023-04-01T08:30:23;13.80;68.10
79055;DHT22;68452;47.186;-1.528;2023-04-01T08:38:01;13.80;65.10
79055;DHT22;68452;47.186;-1.528;2023-04-01T08:46:11;13.80;64.90
79055;DHT22;68452;47.186;-1.528;2023-04-01T08:51:48;13.40;63.90
79055;DHT22;68452;47.186;-1.528;2023-04-01T08:54:34;13.10;65.20
79055;DHT22;68452;47.186;-1.528;2023-04-01T09:02:41;12.70;68.30
79055;DHT22;68452;47.186;-1.528;2023-04-01T09:27:05;12.10;73.10
79055;DHT22;68452;47.186;-1.528;2023-04-01T09:35:45;12.00;73.90
79055;DHT22;68452;47.186;-1.528;2023-04-01T09:38:22;11.80;74.00
79055;DHT22;68452;47.186;-1.528;2023-04-01T09:40:55;11.70;74.50
79055;DHT22;68452;47.186;-1.528;2023-04-01T09:54:13;12.00;74.00
79055;DHT22;68452;47.186;-1.528;2023-04-01T10:05:58;12.20;72.10
79055;DHT22;68452;47.186;-1.528;2023-04-01T10:16:33;12.20;72.60
79055;DHT22;68452;47.186;-1.528;2023-04-01T10:53:40;12.20;72.00
79055;DHT22;68452;47.186;-1.528;2023-04-01T11:12:46;11.90;72.60
79055;DHT22;68452;47.186;-1.528;2023-04-01T11:18:41;12.00;73.00
79055;DHT22;68452;47.186;-1.528;2023-04-01T11:21:46;12.00;72.80
79055;DHT22;68452;47.186;-1.528;2023-04-01T11:32:24;12.20;73.70
79055;DHT22;68452;47.186;-1.528;2023-04-01T11:48:48;12.50;73.90
79055;DHT22;68452;47.186;-1.528;2023-04-01T11:51:21;12.60;73.10
79055;DHT22;68452;47.186;-1.528;2023-04-01T11:54:01;12.60;72.90
79055;DHT22;68452;47.186;-1.528;2023-04-01T11:56:58;12.60;72.40
79055;DHT22;68452;47.186;-1.528;2023-04-01T11:59:36;12.70;73.00
79055;DHT22;68452;47.186;-1.528;2023-04-01T12:21:21;13.10;70.30
79055;DHT22;68452;47.186;-1.528;2023-04-01T12:32:39;13.20;69.00
79055;DHT22;68452;47.186;-1.528;2023-04-01T12:54:33;13.60;66.00
79055;DHT22;68452;47.186;-1.528;2023-04-01T13:00:13;13.80;67.00
79055;DHT22;68452;47.186;-1.528;2023-04-01T13:02:51;13.80;66.50
79055;DHT22;68452;47.186;-1.528;2023-04-01T13:11:13;14.10;67.50
79055;DHT22;68452;47.186;-1.528;2023-04-01T13:16:34;14.20;64.00
79055;DHT22;68452;47.186;-1.528;2023-04-01T13:19:13;14.20;65.30
79055;DHT22;68452;47.186;-1.528;2023-04-01T13:22:09;14.30;66.50
79055;DHT22;68452;47.186;-1.528;2023-04-01T13:24:56;14.50;66.70
79055;DHT22;68452;47.186;-1.528;2023-04-01T13:30:39;14.70;66.10
79055;DHT22;68452;47.186;-1.528;2023-04-01T13:44:17;15.00;63.00
79055;DHT22;68452;47.186;-1.528;2023-04-01T13:47:10;15.20;65.00
79055;DHT22;68452;47.186;-1.528;2023-04-01T13:52:50;15.20;62.10
79055;DHT22;68452;47.186;-1.528;2023-04-01T13:55:30;15.10;62.50
79055;DHT22;68452;47.186;-1.528;2023-04-01T14:01:01;15.30;61.60
79055;DHT22;68452;47.186;-1.528;2023-04-01T14:03:49;15.40;63.00
79055;DHT22;68452;47.186;-1.528;2023-04-01T14:06:34;15.30;59.00
79055;DHT22;68452;47.186;-1.528;2023-04-01T14:11:54;15.30;60.80
79055;DHT22;68452;47.186;-1.528;2023-04-01T14:17:25;15.70;59.60
79055;DHT22;68452;47.186;-1.528;2023-04-01T14:22:53;15.90;57.50
79055;DHT22;68452;47.186;-1.528;2023-04-01T14:28:08;16.40;57.50
79055;DHT22;68452;47.186;-1.528;2023-04-01T14:31:10;16.60;58.00
79055;DHT22;68452;47.186;-1.528;2023-04-01T14:48:00;17.10;52.70
79055;DHT22;68452;47.186;-1.528;2023-04-01T14:50:45;16.80;54.10
79055;DHT22;68452;47.186;-1.528;2023-04-01T14:53:28;16.60;52.80
79055;DHT22;68452;47.186;-1.528;2023-04-01T14:55:59;16.70;54.40
79055;DHT22;68452;47.186;-1.528;2023-04-01T14:58:46;16.70;53.50
79055;DHT22;68452;47.186;-1.528;2023-04-01T15:06:54;16.90;53.60
79055;DHT22;68452;47.186;-1.528;2023-04-01T15:12:46;16.80;53.00
79055;DHT22;68452;47.186;-1.528;2023-04-01T15:18:41;17.10;53.80
79055;DHT22;68452;47.186;-1.528;2023-04-01T15:24:21;17.20;52.30
79055;DHT22;68452;47.186;-1.528;2023-04-01T15:27:01;17.20;51.80
79055;DHT22;68452;47.186;-1.528;2023-04-01T15:30:02;17.20;52.20
79055;DHT22;68452;47.186;-1.528;2023-04-01T15:40:59;17.30;51.50
79055;DHT22;68452;47.186;-1.528;2023-04-01T15:43:48;17.30;50.50
79055;DHT22;68452;47.186;-1.528;2023-04-01T15:46:51;17.20;49.20
79055;DHT22;68452;47.186;-1.528;2023-04-01T15:54:50;16.80;49.40
79055;DHT22;68452;47.186;-1.528;2023-04-01T16:03:14;16.40;50.80
79055;DHT22;68452;47.186;-1.528;2023-04-01T16:06:10;16.40;51.80
79055;DHT22;68452;47.186;-1.528;2023-04-01T16:17:00;16.10;51.90
79055;DHT22;68452;47.186;-1.528;2023-04-01T16:28:25;15.80;51.20
79055;DHT22;68452;47.186;-1.528;2023-04-01T16:44:55;15.50;53.70
79055;DHT22;68452;47.186;-1.528;2023-04-01T16:50:20;15.40;53.60
79055;DHT22;68452;47.186;-1.528;2023-04-01T16:53:02;15.40;53.30
79055;DHT22;68452;47.186;-1.528;2023-04-01T16:56:12;15.30;53.80
79055;DHT22;68452;47.186;-1.528;2023-04-01T16:59:45;15.30;53.50
79055;DHT22;68452;47.186;-1.528;2023-04-01T17:02:08;15.20;53.90
79055;DHT22;68452;47.186;-1.528;2023-04-01T17:15:51;14.90;54.70
79055;DHT22;68452;47.186;-1.528;2023-04-01T17:21:07;14.90;54.70
79055;DHT22;68452;47.186;-1.528;2023-04-01T17:23:37;14.90;54.90
79055;DHT22;68452;47.186;-1.528;2023-04-01T17:26:17;14.90;55.40
79055;DHT22;68452;47.186;-1.528;2023-04-01T17:37:37;14.80;55.80
79055;DHT22;68452;47.186;-1.528;2023-04-01T17:42:53;14.70;56.20
79055;DHT22;68452;47.186;-1.528;2023-04-01T17:45:28;14.70;56.30
79055;DHT22;68452;47.186;-1.528;2023-04-01T17:48:24;14.70;56.00
79055;DHT22;68452;47.186;-1.528;2023-04-01T17:59:43;14.50;56.50
79055;DHT22;68452;47.186;-1.528;2023-04-01T18:05:06;14.40;57.10
79055;DHT22;68452;47.186;-1.528;2023-04-01T18:10:50;14.30;57.60
79055;DHT22;68452;47.186;-1.528;2023-04-01T18:16:02;14.30;57.60
79055;DHT22;68452;47.186;-1.528;2023-04-01T18:21:44;14.20;57.90
79055;DHT22;68452;47.186;-1.528;2023-04-01T18:24:30;14.20;58.10
79055;DHT22;68452;47.186;-1.528;2023-04-01T18:27:16;14.10;58.30
79055;DHT22;68452;47.186;-1.528;2023-04-01T18:29:48;14.10;58.40
79055;DHT22;68452;47.186;-1.528;2023-04-01T18:38:15;14.10;58.40
79055;DHT22;68452;47.186;-1.528;2023-04-01T18:40:54;14.10;58.60
79055;DHT22;68452;47.186;-1.528;2023-04-01T18:43:51;14.00;58.90
79055;DHT22;68452;47.186;-1.528;2023-04-01T18:47:07;13.90;59.00
79055;DHT22;68452;47.186;-1.528;2023-04-01T18:58:14;13.80;60.00
79055;DHT22;68452;47.186;-1.528;2023-04-01T19:01:33;13.80;60.10
79055;DHT22;68452;47.186;-1.528;2023-04-01T19:06:26;13.70;60.70
79055;DHT22;68452;47.186;-1.528;2023-04-01T19:08:53;13.60;60.70
79055;DHT22;68452;47.186;-1.528;2023-04-01T19:11:42;13.60;60.80
79055;DHT22;68452;47.186;-1.528;2023-04-01T19:17:01;13.60;61.00
79055;DHT22;68452;47.186;-1.528;2023-04-01T19:19:43;13.50;61.40
79055;DHT22;68452;47.186;-1.528;2023-04-01T19:24:58;13.50;61.30
79055;DHT22;68452;47.186;-1.528;2023-04-01T19:27:41;13.50;61.30
79055;DHT22;68452;47.186;-1.528;2023-04-01T19:30:30;13.50;61.40
79055;DHT22;68452;47.186;-1.528;2023-04-01T19:38:39;13.30;61.90
79055;DHT22;68452;47.186;-1.528;2023-04-01T19:41:27;13.40;62.10
79055;DHT22;68452;47.186;-1.528;2023-04-01T19:52:36;13.10;63.00
79055;DHT22;68452;47.186;-1.528;2023-04-01T19:58:25;13.20;63.30
79055;DHT22;68452;47.186;-1.528;2023-04-01T20:00:59;13.10;63.50
79055;DHT22;68452;47.186;-1.528;2023-04-01T20:03:53;13.10;63.30
79055;DHT22;68452;47.186;-1.528;2023-04-01T20:14:36;13.20;63.50
79055;DHT22;68452;47.186;-1.528;2023-04-01T20:19:43;13.10;63.50
79055;DHT22;68452;47.186;-1.528;2023-04-01T20:22:24;13.20;63.30
79055;DHT22;68452;47.186;-1.528;2023-04-01T20:24:59;13.20;63.50
79055;DHT22;68452;47.186;-1.528;2023-04-01T20:27:38;13.20;63.60
79055;DHT22;68452;47.186;-1.528;2023-04-01T20:30:19;13.20;63.60
79055;DHT22;68452;47.186;-1.528;2023-04-01T20:41:27;12.80;64.80
79055;DHT22;68452;47.186;-1.528;2023-04-01T20:47:18;12.90;64.50
79055;DHT22;68452;47.186;-1.528;2023-04-01T20:52:49;12.70;64.90
79055;DHT22;68452;47.186;-1.528;2023-04-01T20:58:45;12.50;65.60
79055;DHT22;68452;47.186;-1.528;2023-04-01T21:04:30;12.60;64.80
79055;DHT22;68452;47.186;-1.528;2023-04-01T21:19:01;12.40;65.60
79055;DHT22;68452;47.186;-1.528;2023-04-01T21:24:43;12.30;65.70
79055;DHT22;68452;47.186;-1.528;2023-04-01T21:27:27;12.20;65.50
79055;DHT22;68452;47.186;-1.528;2023-04-01T21:33:16;12.20;65.50
79055;DHT22;68452;47.186;-1.528;2023-04-01T21:41:39;12.20;65.10
79055;DHT22;68452;47.186;-1.528;2023-04-01T21:56:26;12.60;64.70
79055;DHT22;68452;47.186;-1.528;2023-04-01T22:06:45;12.60;64.80
79055;DHT22;68452;47.186;-1.528;2023-04-01T22:09:24;12.70;64.50
79055;DHT22;68452;47.186;-1.528;2023-04-01T22:12:15;12.80;64.40
79055;DHT22;68452;47.186;-1.528;2023-04-01T22:14:58;12.80;64.00
79055;DHT22;68452;47.186;-1.528;2023-04-01T22:17:30;12.80;63.80
79055;DHT22;68452;47.186;-1.528;2023-04-01T22:23:07;12.90;63.30
79055;DHT22;68452;47.186;-1.528;2023-04-01T22:26:21;13.00;63.20
79055;DHT22;68452;47.186;-1.528;2023-04-01T22:29:10;12.90;63.20
79055;DHT22;68452;47.186;-1.528;2023-04-01T22:31:52;12.90;62.70
79055;DHT22;68452;47.186;-1.528;2023-04-01T22:45:42;12.90;63.00
79055;DHT22;68452;47.186;-1.528;2023-04-01T22:56:57;12.90;62.70
79055;DHT22;68452;47.186;-1.528;2023-04-01T22:59:39;12.90;63.10
79055;DHT22;68452;47.186;-1.528;2023-04-01T23:02:20;12.90;63.00
79055;DHT22;68452;47.186;-1.528;2023-04-01T23:04:59;12.90;62.90
79055;DHT22;68452;47.186;-1.528;2023-04-01T23:10:38;12.90;63.20
79055;DHT22;68452;47.186;-1.528;2023-04-01T23:13:18;12.90;63.30
79055;DHT22;68452;47.186;-1.528;2023-04-01T23:15:46;12.90;63.50
79055;DHT22;68452;47.186;-1.528;2023-04-01T23:18:15;12.90;63.40
79055;DHT22;68452;47.186;-1.528;2023-04-01T23:24:15;12.90;63.60
79055;DHT22;68452;47.186;-1.528;2023-04-01T23:26:56;12.90;63.60
79055;DHT22;68452;47.186;-1.528;2023-04-01T23:29:24;12.90;63.80
79055;DHT22;68452;47.186;-1.528;2023-04-01T23:31:59;12.90;63.90
79055;DHT22;68452;47.186;-1.528;2023-04-01T23:34:34;12.90;64.00
79055;DHT22;68452;47.186;-1.528;2023-04-01T23:37:13;12.90;64.00
79055;DHT22;68452;47.186;-1.528;2023-04-01T23:39:45;13.00;63.80
79055;DHT22;68452;47.186;-1.528;2023-04-01T23:44:56;12.90;64.10
79055;DHT22;68452;47.186;-1.528;2023-04-01T23:47:38;12.90;64.30
79055;DHT22;68452;47.186;-1.528;2023-04-01T23:52:43;12.80;64.10
79055;DHT22;68452;47.186;-1.528;2023-04-01T23:55:14;12.80;64.40
